Time;durP1;ratioP1;P1;durP2;ratioP2;P2;SDS_P1;SDS_P2;PMS_P1;PMS_P2;Temp;Humidity;BMP_temperature;BMP_pressure;BME280_temperature;BME280_humidity;BME280_pressure;Samples;Min_cycle;Max_cycle;Signal;HPM_P1;HPM_P2
2021/06/24 00:01:20;;;;;;;22.73;11.40;;;;;;;24.88;83.33;101372.55;1776819;81;21331;-78
2021/06/24 00:03:53;;;;;;;28.38;11.78;;;;;;;24.90;83.13;101364.50;1776175;80;21328;-76
2021/06/24 00:06:25;;;;;;;27.13;12.23;;;;;;;24.87;83.19;101359.52;1777428;81;21316;-76
2021/06/24 00:08:58;;;;;;;;;;;;;;;24.81;83.37;101367.97;1778768;81;21228;-73
2021/06/24 00:11:30;;;;;;;25.05;10.03;;;;;;;24.77;83.54;101359.30;1775573;81;20190;-76
2021/06/24 00:14:15;;;;;;;25.40;11.17;;;;;;;24.75;83.54;101359.38;1775229;79;21182;-72
2021/06/24 00:16:52;;;;;;;26.93;11.57;;;;;;;24.72;83.64;101358.63;1730629;81;21178;-74
2021/06/24 00:19:36;;;;;;;31.10;12.70;;;;;;;24.71;83.87;101359.23;1721624;81;21649;-73
2021/06/24 00:22:36;;;;;;;31.33;12.58;;;;;;;24.74;83.95;101352.04;1730153;81;21184;-70
2021/06/24 00:25:17;;;;;;;27.00;11.12;;;;;;;24.76;83.89;101346.23;1766904;81;21174;-73
2021/06/24 00:28:34;;;;;;;31.48;12.73;;;;;;;24.76;83.75;101343.39;1746977;81;21210;-73
2021/06/24 00:31:49;;;;;;;31.35;13.50;;;;;;;24.77;83.94;101340.82;1766647;81;21187;-73
2021/06/24 00:34:22;;;;;;;36.90;11.78;;;;;;;24.81;83.76;101339.55;1766838;81;21154;-74
2021/06/24 00:36:55;;;;;;;25.20;11.25;;;;;;;24.82;83.58;101338.37;1766795;81;21159;-73
2021/06/24 00:39:27;;;;;;;26.57;11.22;;;;;;;24.79;83.62;101339.03;1766698;81;21708;-72
2021/06/24 00:42:01;;;;;;;33.33;11.97;;;;;;;24.78;83.69;101342.48;1733509;83;21197;-73
2021/06/24 00:44:33;;;;;;;33.88;13.20;;;;;;;24.78;83.67;101345.91;1733366;81;21194;-71
2021/06/24 00:47:06;;;;;;;22.87;11.70;;;;;;;24.78;83.55;101347.32;1733453;83;21734;-73
2021/06/24 00:49:39;;;;;;;24.37;10.98;;;;;;;24.77;83.49;101344.23;1733510;83;21722;-71
2021/06/24 00:52:11;;;;;;;28.57;11.12;;;;;;;24.77;83.57;101339.41;1739131;81;21233;-75
2021/06/24 00:54:44;;;;;;;;;;;;;;;24.76;83.42;101345.42;1735962;83;21721;-68
2021/06/24 00:57:18;;;;;;;34.75;11.78;;;;;;;24.74;83.52;101341.48;1733271;83;20216;-70
2021/06/24 00:59:50;;;;;;;37.27;11.93;;;;;;;24.75;83.56;101336.05;1733720;81;21719;-69
2021/06/24 01:02:23;;;;;;;33.73;10.70;;;;;;;24.76;83.35;101345.42;1733525;83;21166;-71
2021/06/24 01:04:56;;;;;;;38.38;11.28;;;;;;;24.75;83.38;101339.49;1733544;81;21186;-71
2021/06/24 01:07:30;;;;;;;26.95;10.82;;;;;;;24.72;83.28;101338.16;1733298;83;21241;-73
2021/06/24 01:10:11;;;;;;;33.58;10.90;;;;;;;24.70;83.43;101338.25;1734110;82;21185;-72
2021/06/24 01:12:43;;;;;;;;;;;;;;;24.70;83.42;101333.98;1735942;83;21206;-72
2021/06/24 01:15:16;;;;;;;30.08;11.97;;;;;;;24.66;83.25;101333.83;1733491;82;20225;-72
2021/06/24 01:17:50;;;;;;;28.20;10.35;;;;;;;24.63;83.47;101334.49;1741659;82;21351;-71
2021/06/24 01:20:28;;;;;;;25.08;10.75;;;;;;;24.62;83.54;101334.86;1742102;81;21756;-73
2021/06/24 01:23:02;;;;;;;39.42;12.07;;;;;;;24.60;83.60;101332.92;1739500;82;21719;-73
2021/06/24 01:25:36;;;;;;;29.27;10.38;;;;;;;24.60;83.65;101337.17;1738070;82;21376;-71
2021/06/24 01:28:10;;;;;;;27.58;10.68;;;;;;;24.60;83.72;101336.61;1738171;82;21182;-71
2021/06/24 01:30:44;;;;;;;32.42;10.05;;;;;;;24.61;83.70;101340.27;1737970;82;21383;-72
2021/06/24 01:33:17;;;;;;;33.15;11.83;;;;;;;24.60;83.56;101332.34;1738170;82;21332;-71
2021/06/24 01:35:49;;;;;;;39.67;10.85;;;;;;;24.60;83.65;101331.50;1738189;82;21415;-73
2021/06/24 01:38:22;;;;;;;;;;;;;;;24.57;83.63;101336.45;1740610;82;21150;-70
2021/06/24 01:40:56;;;;;;;33.58;10.53;;;;;;;24.55;83.72;101338.74;1738822;82;20189;-71
2021/06/24 01:43:29;;;;;;;28.42;9.90;;;;;;;24.49;83.88;101340.94;1738230;82;21312;-71
2021/06/24 01:46:02;;;;;;;32.80;11.65;;;;;;;24.47;83.89;101343.87;1738056;82;21257;-70
2021/06/24 01:48:35;;;;;;;26.90;11.78;;;;;;;24.47;83.98;101341.87;1736861;79;21161;-69
2021/06/24 01:51:10;;;;;;;24.02;10.60;;;;;;;24.48;83.98;101344.11;1717074;82;21356;-69
2021/06/24 01:53:44;;;;;;;20.02;10.05;;;;;;;24.51;83.98;101344.27;1716316;81;21752;-70
2021/06/24 01:56:17;;;;;;;33.28;9.43;;;;;;;24.49;83.87;101338.09;1716319;83;21245;-69
2021/06/24 01:58:53;;;;;;;37.93;10.98;;;;;;;24.44;83.98;101338.87;1716430;83;21855;-69
2021/06/24 02:01:36;;;;;;;26.50;11.85;;;;;;;24.42;84.09;101342.62;1717197;81;21225;-69
2021/06/24 02:04:16;;;;;;;24.45;10.85;;;;;;;24.41;84.14;101346.06;1717368;83;21368;-69
2021/06/24 02:06:49;;;;;;;23.30;10.23;;;;;;;24.41;84.08;101339.53;1717890;83;21337;-68
2021/06/24 02:09:24;;;;;;;27.93;10.45;;;;;;;24.39;84.24;101336.20;1712772;83;21448;-70
2021/06/24 02:11:58;;;;;;;29.98;9.75;;;;;;;24.41;84.25;101342.37;1722232;83;21251;-67
2021/06/24 02:14:33;;;;;;;30.35;11.57;;;;;;;24.40;84.16;101337.88;1724559;83;21370;-69
2021/06/24 02:17:05;;;;;;;35.43;10.25;;;;;;;24.39;84.20;101337.63;1728638;83;21923;-70
2021/06/24 02:19:38;;;;;;;22.13;9.60;;;;;;;24.40;84.23;101335.03;1722391;83;21337;-70
2021/06/24 02:22:13;;;;;;;30.68;10.20;;;;;;;24.42;84.09;101339.78;1714912;83;21198;-70
2021/06/24 02:24:47;;;;;;;33.10;11.38;;;;;;;24.42;84.16;101334.95;1712746;83;21392;-72
2021/06/24 02:27:20;;;;;;;29.05;11.33;;;;;;;24.46;84.07;101336.52;1716311;81;21186;-71
2021/06/24 02:30:14;;;;;;;24.95;9.88;;;;;;;24.45;84.03;101343.38;1704221;83;21318;-73
2021/06/24 02:32:49;;;;;;;43.08;12.05;;;;;;;24.44;84.03;101341.72;1732268;81;21884;-72
2021/06/24 02:35:22;;;;;;;39.25;10.88;;;;;;;24.43;84.21;101337.17;1733501;83;21390;-72
2021/06/24 02:37:59;;;;;;;25.15;10.08;;;;;;;24.43;84.26;101340.87;1730111;83;21326;-74
2021/06/24 02:40:36;;;;;;;39.23;11.48;;;;;;;24.46;84.17;101339.36;1725352;83;21846;-73
2021/06/24 02:43:10;;;;;;;32.95;11.73;;;;;;;24.49;84.28;101335.83;1717811;83;21249;-74
2021/06/24 02:45:44;;;;;;;28.92;9.93;;;;;;;24.53;84.12;101346.78;1716603;83;21443;-73
2021/06/24 02:48:22;;;;;;;22.10;10.50;;;;;;;24.54;84.06;101341.34;1720454;78;21278;-72
2021/06/24 02:50:56;;;;;;;29.07;11.38;;;;;;;24.55;84.17;101333.91;1744293;81;21230;-71
2021/06/24 02:53:28;;;;;;;34.75;12.58;;;;;;;24.59;84.14;101336.94;1745973;80;21312;-71
2021/06/24 02:56:02;;;;;;;34.75;11.30;;;;;;;24.62;83.98;101339.12;1753826;80;21339;-71
2021/06/24 02:58:36;;;;;;;37.85;11.60;;;;;;;24.66;83.92;101347.19;1760700;81;21312;-72
2021/06/24 03:01:29;;;;;;;33.95;10.82;;;;;;;24.63;83.86;101335.91;1772457;79;21290;-71
2021/06/24 03:04:05;;;;;;;29.20;11.20;;;;;;;24.63;84.03;101339.36;1767461;79;21368;-71
2021/06/24 03:06:39;;;;;;;33.38;12.33;;;;;;;24.66;84.13;101338.66;1756052;80;21190;-71
2021/06/24 03:09:12;;;;;;;35.45;11.08;;;;;;;24.70;84.15;101341.91;1766856;81;21187;-70
2021/06/24 03:11:46;;;;;;;29.15;10.95;;;;;;;24.75;84.05;101342.33;1765496;81;21179;-72
2021/06/24 03:14:21;;;;;;;43.28;10.78;;;;;;;24.77;83.95;101339.98;1767059;80;21167;-72
2021/06/24 03:16:53;;;;;;;;;;;;;;;24.78;84.05;101338.80;1769832;81;21261;-72
2021/06/24 03:19:26;;;;;;;41.80;13.62;;;;;;;24.83;84.18;101336.62;1767146;81;20685;-73
2021/06/24 03:22:00;;;;;;;41.15;12.78;;;;;;;24.88;84.17;101334.98;1758041;81;21308;-72
2021/06/24 03:24:34;;;;;;;40.55;12.65;;;;;;;24.93;84.21;101342.52;1710775;84;21412;-73
2021/06/24 03:27:08;;;;;;;46.02;13.15;;;;;;;24.99;84.35;101345.42;1759673;81;21182;-71
2021/06/24 03:29:43;;;;;;;38.23;13.40;;;;;;;25.03;84.43;101342.97;1764128;81;21166;-72
2021/06/24 03:32:16;;;;;;;40.25;14.18;;;;;;;25.08;84.49;101351.89;1754497;81;21143;-72
2021/06/24 03:34:49;;;;;;;54.13;14.85;;;;;;;25.13;84.47;101354.55;1710676;84;21396;-71
2021/06/24 03:37:24;;;;;;;41.42;12.47;;;;;;;25.13;84.21;101353.13;1741687;82;21174;-72
2021/06/24 03:39:57;;;;;;;51.85;13.32;;;;;;;25.10;84.06;101341.84;1725054;82;21744;-71
2021/06/24 03:42:30;;;;;;;36.88;13.35;;;;;;;25.06;84.00;101338.00;1714077;82;21419;-69
2021/06/24 03:45:06;;;;;;;46.50;15.10;;;;;;;25.05;84.04;101345.48;1757505;81;21367;-70
2021/06/24 03:47:41;;;;;;;41.23;13.85;;;;;;;25.04;84.10;101346.63;1767149;81;21328;-71
2021/06/24 03:50:15;;;;;;;56.88;14.60;;;;;;;25.11;84.38;101342.69;1759453;80;21688;-71
2021/06/24 03:52:49;;;;;;;46.83;13.03;;;;;;;25.20;84.40;101344.89;1762854;80;21398;-72
2021/06/24 03:55:45;;;;;;;52.33;13.08;;;;;;;25.29;84.33;101335.16;1726322;81;21178;-69
2021/06/24 03:57:58;;;;;;;56.23;14.73;;;;;;;25.39;84.09;101330.52;1734417;81;22169;-71
2021/06/24 04:00:32;;;;;;;54.65;14.63;;;;;;;25.53;83.85;101333.94;1721714;81;21367;-71
2021/06/24 04:03:08;;;;;;;54.98;14.53;;;;;;;25.67;83.76;101331.65;1743584;81;21217;-70
2021/06/24 04:05:46;;;;;;;46.18;12.95;;;;;;;25.82;83.58;101325.94;1737438;81;21242;-73
2021/06/24 04:08:19;;;;;;;38.02;13.53;;;;;;;26.02;83.31;101325.96;1745143;81;21316;-69
2021/06/24 04:10:53;;;;;;;43.38;12.40;;;;;;;26.26;83.04;101326.66;1747211;81;21458;-70
2021/06/24 04:13:26;;;;;;;44.40;12.37;;;;;;;26.49;82.41;101321.66;1739324;81;21373;-72
2021/06/24 04:15:59;;;;;;;33.50;13.22;;;;;;;26.85;82.18;101333.75;1713920;81;21314;-71
2021/06/24 04:18:32;;;;;;;31.15;11.97;;;;;;;27.32;80.80;101326.46;1772597;81;21404;-70
2021/06/24 04:21:06;;;;;;;35.80;11.88;;;;;;;27.82;79.24;101324.27;1768876;81;21156;-66
2021/06/24 04:23:39;;;;;;;28.45;10.53;;;;;;;28.32;77.82;101314.56;1755719;81;21425;-69
2021/06/24 04:26:14;;;;;;;38.13;9.80;;;;;;;28.81;76.30;101310.87;1743261;81;21360;-69
2021/06/24 04:28:47;;;;;;;29.67;10.20;;;;;;;29.29;74.38;101313.39;1734091;83;21273;-68
2021/06/24 04:31:21;;;;;;;38.30;10.60;;;;;;;29.76;72.12;101321.29;1733930;83;21845;-73
2021/06/24 04:33:54;;;;;;;28.02;10.90;;;;;;;30.19;70.21;101323.33;1734028;83;21233;-73
2021/06/24 04:36:29;;;;;;;23.50;9.30;;;;;;;30.61;68.71;101325.64;1739666;81;21747;-77
2021/06/24 04:39:04;;;;;;;27.22;10.13;;;;;;;31.04;67.98;101321.55;1740516;81;21327;-72
2021/06/24 04:41:38;;;;;;;25.75;8.30;;;;;;;31.46;66.57;101320.27;1704580;83;21213;-69
2021/06/24 04:44:12;;;;;;;34.65;9.75;;;;;;;31.84;64.78;101325.81;1769845;79;21222;-70
2021/06/24 04:46:46;;;;;;;28.73;7.97;;;;;;;32.18;63.00;101333.88;1704532;84;21209;-71
2021/06/24 04:49:20;;;;;;;24.55;8.03;;;;;;;32.43;61.66;101339.38;1765165;81;21770;-77
2021/06/24 04:51:56;;;;;;;32.23;7.95;;;;;;;32.66;60.19;101340.06;1763411;80;21327;-75
2021/06/24 04:54:41;;;;;;;31.70;8.28;;;;;;;32.89;58.37;101335.01;1738512;80;21186;-76
2021/06/24 04:57:13;;;;;;;31.50;7.47;;;;;;;33.02;57.12;101339.25;1747659;81;21319;-72
2021/06/24 04:59:48;;;;;;;25.17;7.60;;;;;;;33.14;57.42;101342.68;1747295;81;21878;-77
2021/06/24 05:02:26;;;;;;;27.52;7.15;;;;;;;33.31;56.53;101340.58;1748612;81;21181;-73
2021/06/24 05:05:09;;;;;;;25.65;7.55;;;;;;;33.43;55.19;101346.67;1744902;81;21379;-74
2021/06/24 05:07:44;;;;;;;19.57;5.83;;;;;;;33.48;54.70;101349.19;1747461;81;21327;-79
2021/06/24 05:10:17;;;;;;;33.20;7.30;;;;;;;33.40;53.77;101347.45;1752303;82;21328;-74
2021/06/24 05:12:51;;;;;;;25.55;7.00;;;;;;;33.09;54.33;101349.40;1752521;80;21174;-75
2021/06/24 05:15:24;;;;;;;32.38;7.00;;;;;;;33.03;54.47;101339.47;1752895;80;21826;-77
2021/06/24 05:17:57;;;;;;;28.12;7.17;;;;;;;33.05;55.28;101350.80;1747844;82;21304;-77
2021/06/24 05:20:31;;;;;;;21.90;6.95;;;;;;;33.21;54.00;101349.95;1752689;81;21324;-77
2021/06/24 05:23:03;;;;;;;32.63;8.18;;;;;;;33.17;53.50;101346.19;1738896;82;21287;-76
2021/06/24 05:25:37;;;;;;;27.48;8.73;;;;;;;33.18;53.39;101345.59;1736563;80;21398;-74
2021/06/24 05:28:10;;;;;;;32.73;7.53;;;;;;;33.12;53.38;101348.62;1719504;82;21248;-74
2021/06/24 05:30:44;;;;;;;21.02;6.67;;;;;;;33.08;54.67;101345.70;1723608;82;21289;-75
2021/06/24 05:33:17;;;;;;;33.02;7.53;;;;;;;33.25;55.33;101354.30;1748567;82;21331;-76
2021/06/24 05:35:49;;;;;;;34.95;7.58;;;;;;;33.56;53.98;101348.81;1747482;82;21327;-75
2021/06/24 05:38:22;;;;;;;32.73;7.65;;;;;;;33.81;53.32;101349.04;1752610;81;21221;-75
2021/06/24 05:40:57;;;;;;;25.95;7.08;;;;;;;34.03;54.05;101353.72;1748288;80;21758;-76
2021/06/24 05:43:29;;;;;;;22.35;6.72;;;;;;;34.17;51.69;101347.39;1737034;82;21767;-75
2021/06/24 05:46:02;;;;;;;44.73;8.58;;;;;;;34.24;51.74;101350.34;1736160;82;21181;-78
2021/06/24 05:48:35;;;;;;;22.73;7.22;;;;;;;34.51;50.72;101350.27;1730969;81;21235;-76
2021/06/24 05:51:08;;;;;;;26.97;7.22;;;;;;;34.71;50.47;101357.34;1737399;81;21232;-75
2021/06/24 05:53:41;;;;;;;25.95;6.80;;;;;;;34.89;48.96;101350.22;1735823;82;21331;-76
2021/06/24 05:56:14;;;;;;;27.45;7.03;;;;;;;34.83;48.86;101348.33;1731789;82;21269;-74
2021/06/24 05:58:46;;;;;;;;;;;;;;;34.75;48.77;101348.11;1736003;82;21315;-76
2021/06/24 06:01:20;;;;;;;30.65;8.08;;;;;;;34.83;49.14;101354.74;1733259;82;20271;-77
2021/06/24 06:03:53;;;;;;;23.60;7.08;;;;;;;34.95;47.65;101350.83;1736429;82;21382;-75
2021/06/24 06:06:26;;;;;;;32.65;6.65;;;;;;;35.16;48.30;101342.81;1733673;81;21415;-76
2021/06/24 06:09:01;;;;;;;21.57;6.47;;;;;;;35.25;47.68;101346.98;1730059;82;21423;-71
2021/06/24 06:11:35;;;;;;;28.45;6.80;;;;;;;35.37;48.13;101345.77;1731953;82;21474;-70
2021/06/24 06:14:07;;;;;;;27.60;6.25;;;;;;;35.61;47.98;101344.91;1730491;82;21255;-70
2021/06/24 06:16:40;;;;;;;24.18;5.90;;;;;;;35.83;46.41;101346.57;1735899;82;21583;-71
2021/06/24 06:19:13;;;;;;;29.27;6.12;;;;;;;35.97;46.65;101343.64;1736408;82;21200;-73
2021/06/24 06:21:52;;;;;;;25.85;6.25;;;;;;;36.02;45.98;101343.22;1729922;81;21279;31
2021/06/24 06:24:25;;;;;;;30.40;7.12;;;;;;;36.03;46.25;101337.63;1710591;83;21202;-76
2021/06/24 06:26:59;;;;;;;29.72;6.72;;;;;;;36.25;46.38;101335.75;1713043;82;21220;-77
2021/06/24 06:29:31;;;;;;;32.28;7.55;;;;;;;36.48;46.49;101331.70;1708604;83;21282;-75
2021/06/24 06:32:05;;;;;;;29.05;7.42;;;;;;;36.73;46.16;101335.31;1709688;83;21301;-78
2021/06/24 06:34:39;;;;;;;33.75;7.12;;;;;;;36.97;46.24;101327.09;1693168;83;21807;-80
2021/06/24 06:37:12;;;;;;;30.55;7.50;;;;;;;37.28;45.67;101314.45;1711737;82;21365;-75
2021/06/24 06:39:45;;;;;;;34.53;7.47;;;;;;;37.58;45.32;101316.08;1717671;83;21304;-78
2021/06/24 06:42:17;;;;;;;;;;;;;;;37.83;45.25;101317.29;1714701;83;21160;-76
2021/06/24 06:44:50;;;;;;;31.10;6.75;;;;;;;37.90;44.22;101313.69;1710097;83;20190;-76
2021/06/24 06:47:22;;;;;;;;;;;;;;;37.86;43.17;101314.34;1712343;83;21429;-72
2021/06/24 06:49:54;;;;;;;24.98;6.10;;;;;;;37.90;43.95;101304.98;1709799;83;20261;-76
2021/06/24 06:52:27;;;;;;;27.90;6.60;;;;;;;37.90;42.41;101303.53;1709970;82;21429;-76
2021/06/24 06:55:00;;;;;;;27.55;6.78;;;;;;;37.78;41.50;101309.89;1710455;83;21194;-76
2021/06/24 06:57:32;;;;;;;;;;;;;;;37.71;42.23;101309.13;1718192;83;21393;-75
2021/06/24 07:00:07;;;;;;;22.17;5.92;;;;;;;37.67;42.27;101306.88;1712225;83;20613;-77
2021/06/24 07:02:40;;;;;;;27.82;5.78;;;;;;;37.68;42.51;101308.52;1693405;83;21424;-78
2021/06/24 07:05:13;;;;;;;26.30;6.08;;;;;;;37.75;43.48;101309.28;1697951;83;21330;-77
2021/06/24 07:07:46;;;;;;;31.35;5.65;;;;;;;37.85;42.02;101307.52;1693429;85;21251;-72
2021/06/24 07:10:19;;;;;;;22.20;5.87;;;;;;;37.85;41.06;101307.52;1697841;84;21175;-72
2021/06/24 07:12:51;;;;;;;;;;;;;;;37.81;41.89;101302.40;1695934;83;21848;-72
2021/06/24 07:15:23;;;;;;;22.93;6.20;;;;;;;37.86;40.77;101298.38;1694533;83;21083;-71
2021/06/24 07:17:57;;;;;;;23.02;5.80;;;;;;;37.76;41.40;101302.86;1713141;83;21336;-72
2021/06/24 07:20:28;;;;;;;;;;;;;;;37.69;42.28;101297.94;1693251;83;21335;-70
2021/06/24 07:23:01;;;;;;;27.27;6.20;;;;;;;37.62;40.87;101293.67;1713380;81;20578;-72
2021/06/24 07:25:34;;;;;;;25.37;5.87;;;;;;;37.54;40.72;101288.36;1714442;82;21313;-73
2021/06/24 07:28:07;;;;;;;26.77;6.28;;;;;;;37.63;42.06;101285.80;1710215;83;21566;-71
2021/06/24 07:30:41;;;;;;;35.68;6.53;;;;;;;37.65;40.51;101284.13;1706931;83;21772;-72
2021/06/24 07:33:14;;;;;;;37.67;6.53;;;;;;;37.50;39.62;101289.81;1715034;82;21269;-72
2021/06/24 07:35:46;;;;;;;35.38;6.50;;;;;;;37.33;40.38;101286.45;1714244;82;21361;-73
2021/06/24 07:38:19;;;;;;;34.98;7.33;;;;;;;37.28;41.13;101276.76;1719535;82;21392;-72
2021/06/24 07:40:52;;;;;;;38.88;6.65;;;;;;;37.22;40.19;101284.27;1715801;82;21381;-73
2021/06/24 07:43:25;;;;;;;22.42;6.70;;;;;;;37.07;40.36;101278.98;1714193;82;21337;-75
2021/06/24 07:45:59;;;;;;;22.13;6.30;;;;;;;36.78;40.06;101287.07;1715373;83;21196;-71
2021/06/24 07:48:32;;;;;;;25.92;6.60;;;;;;;36.53;40.65;101295.06;1719909;83;21286;-73
2021/06/24 07:51:05;;;;;;;27.05;6.92;;;;;;;36.31;40.51;101297.88;1673596;84;21348;-74
2021/06/24 07:53:42;;;;;;;31.82;6.70;;;;;;;36.07;41.97;101295.05;1673463;84;21352;-71
2021/06/24 07:56:18;;;;;;;26.52;6.65;;;;;;;35.98;42.52;101291.78;1673518;86;21344;-72
2021/06/24 07:58:52;;;;;;;25.80;6.55;;;;;;;36.01;42.68;101296.72;1673378;86;21357;-73
2021/06/24 08:01:24;;;;;;;36.15;8.33;;;;;;;35.89;43.15;101309.58;1673402;86;21356;-78
2021/06/24 08:04:03;;;;;;;22.32;7.92;;;;;;;35.79;42.48;101316.20;1673504;84;21344;-76
2021/06/24 08:06:34;;;;;;;44.10;7.25;;;;;;;35.62;42.78;101305.45;1673495;86;21451;-76
2021/06/24 08:09:11;;;;;;;32.75;7.65;;;;;;;35.52;43.73;101309.20;1673356;86;21226;-76
2021/06/24 08:11:43;;;;;;;24.87;7.17;;;;;;;35.42;43.83;101309.19;1673498;86;21388;-76
2021/06/24 08:14:15;;;;;;;28.47;8.35;;;;;;;35.12;43.89;101318.25;1673470;84;21890;-75
2021/06/24 08:16:50;;;;;;;26.60;6.87;;;;;;;34.77;44.34;101313.86;1673304;86;21740;-72
2021/06/24 08:19:23;;;;;;;24.85;7.72;;;;;;;34.45;45.58;101311.48;1673324;86;21368;-78
2021/06/24 08:22:02;;;;;;;34.25;7.53;;;;;;;34.40;46.81;101313.95;1673688;86;21356;-77
2021/06/24 08:24:30;;;;;;;31.05;6.55;;;;;;;34.46;46.07;101311.69;1673055;85;21451;-76
2021/06/24 08:30:15;;;;;;;22.77;7.60;;;;;;;34.45;47.45;101316.41;1643620;85;21388;-78
2021/06/24 08:32:48;;;;;;;30.85;7.75;;;;;;;34.49;47.73;101319.55;1687150;82;21329;-78
2021/06/24 08:35:45;;;;;;;36.60;7.42;;;;;;;34.46;47.58;101326.12;1730051;82;21178;-76
2021/06/24 08:38:18;;;;;;;28.98;7.33;;;;;;;34.43;49.10;101321.17;1736418;81;21175;-76
2021/06/24 08:40:54;;;;;;;27.42;7.30;;;;;;;34.44;48.53;101317.05;1732794;81;21214;-77
2021/06/24 08:43:27;;;;;;;29.72;7.35;;;;;;;34.50;48.85;101321.19;1736233;82;21230;-78
2021/06/24 08:46:05;;;;;;;24.70;8.45;;;;;;;34.46;48.43;101318.90;1736167;81;21719;-78
2021/06/24 08:48:39;;;;;;;30.30;8.28;;;;;;;34.25;49.13;101315.08;1736235;82;21266;-78
2021/06/24 08:51:12;;;;;;;38.17;8.10;;;;;;;34.14;49.87;101317.91;1745738;79;21374;-73
2021/06/24 08:53:48;;;;;;;31.10;7.55;;;;;;;34.12;49.53;101309.45;1749573;82;21188;-74
2021/06/24 08:56:21;;;;;;;24.77;7.60;;;;;;;34.01;49.59;101310.84;1749724;81;21227;-73
2021/06/24 08:58:53;;;;;;;25.88;7.47;;;;;;;33.97;49.78;101311.44;1736352;82;21332;-74
2021/06/24 09:01:54;;;;;;;31.93;7.92;;;;;;;33.97;50.37;101307.11;1757567;81;21329;-73
2021/06/24 09:04:31;;;;;;;32.17;7.67;;;;;;;34.00;50.35;101313.52;1709912;82;21390;-75
2021/06/24 09:07:24;;;;;;;28.65;8.60;;;;;;;34.00;50.18;101310.64;1737562;81;21187;-75
2021/06/24 09:10:00;;;;;;;28.23;8.18;;;;;;;33.99;50.60;101308.16;1739361;82;21243;-74
2021/06/24 09:12:33;;;;;;;24.77;7.20;;;;;;;33.98;50.88;101311.64;1734743;83;21196;-74
2021/06/24 09:15:08;;;;;;;32.03;7.72;;;;;;;33.92;50.07;101310.37;1734596;83;21342;-73
2021/06/24 09:17:43;;;;;;;17.87;6.75;;;;;;;33.81;50.20;101312.39;1734679;83;21191;-74
2021/06/24 09:20:29;;;;;;;29.82;8.25;;;;;;;33.75;50.16;101312.53;1734672;83;21236;-72
2021/06/24 09:23:12;;;;;;;26.70;7.60;;;;;;;33.69;50.23;101309.81;1734666;83;21709;-73
2021/06/24 09:25:52;;;;;;;32.28;8.23;;;;;;;33.64;51.05;101310.19;1756960;79;21333;-73
2021/06/24 09:28:29;;;;;;;25.20;7.55;;;;;;;33.53;50.43;101306.39;1771510;80;21878;-74
2021/06/24 09:31:02;;;;;;;21.55;7.45;;;;;;;33.43;50.42;101297.67;1771457;81;21333;-73
2021/06/24 09:33:40;;;;;;;27.20;6.72;;;;;;;33.40;50.99;101292.09;1774901;81;21187;-73
2021/06/24 09:36:12;;;;;;;25.10;7.35;;;;;;;33.40;51.22;101289.81;1778578;79;21934;-73
2021/06/24 09:38:46;;;;;;;32.67;7.65;;;;;;;33.38;51.57;101281.56;1756157;80;21299;-73
2021/06/24 09:41:20;;;;;;;27.42;7.65;;;;;;;33.45;51.55;101285.96;1762246;79;21850;-73
2021/06/24 09:43:54;;;;;;;30.72;7.95;;;;;;;33.47;51.88;101279.17;1777674;79;21205;-75
2021/06/24 09:46:30;;;;;;;32.88;7.95;;;;;;;33.42;51.85;101278.73;1789020;79;21180;-73
2021/06/24 09:49:05;;;;;;;30.10;9.00;;;;;;;33.35;52.12;101267.97;1785482;79;21170;-72
2021/06/24 09:51:38;;;;;;;32.40;8.05;;;;;;;33.32;52.19;101271.64;1787785;79;21368;-74
2021/06/24 09:54:15;;;;;;;33.88;8.43;;;;;;;33.31;52.50;101264.23;1780692;79;21155;-75
2021/06/24 09:56:57;;;;;;;38.48;8.18;;;;;;;33.31;52.72;101271.42;1793829;79;21230;-75
2021/06/24 09:59:38;;;;;;;20.05;6.97;;;;;;;33.26;52.43;101268.95;1806279;79;21245;-71
2021/06/24 10:02:13;;;;;;;33.78;8.40;;;;;;;33.23;52.46;101274.62;1806072;79;21242;-74
2021/06/24 10:04:47;;;;;;;25.55;8.05;;;;;;;33.19;52.29;101268.02;1806489;79;21262;-74
2021/06/24 10:07:26;;;;;;;32.93;7.15;;;;;;;33.05;51.84;101263.56;1806441;79;21946;-71
2021/06/24 10:09:54;;;;;;;30.05;7.78;;;;;;;32.88;52.00;101270.02;1806523;79;21169;-73
2021/06/24 10:12:28;;;;;;;23.47;6.78;;;;;;;32.77;52.93;101264.13;1796778;79;21197;-71
2021/06/24 10:15:01;;;;;;;28.07;8.33;;;;;;;32.75;52.98;101270.91;1783658;79;21360;-73
2021/06/24 10:17:33;;;;;;;29.80;7.33;;;;;;;32.71;53.05;101268.56;1789649;79;21798;-70
2021/06/24 10:20:07;;;;;;;32.88;7.87;;;;;;;32.68;52.02;101269.38;1788668;79;21311;-73
2021/06/24 10:22:41;;;;;;;31.35;8.10;;;;;;;32.67;52.04;101266.88;1762647;79;21866;-75
2021/06/24 10:25:15;;;;;;;28.55;7.87;;;;;;;32.66;52.15;101259.47;1728953;79;21381;-77
2021/06/24 10:27:48;;;;;;;31.75;7.60;;;;;;;32.68;52.83;101261.33;1674431;84;21705;-78
2021/06/24 10:30:23;;;;;;;29.63;7.62;;;;;;;32.72;53.06;101257.30;1709296;84;22088;-77
2021/06/24 10:33:03;;;;;;;30.25;6.92;;;;;;;32.75;51.48;101252.20;1711067;84;21182;-77
2021/06/24 10:35:38;;;;;;;24.30;8.38;;;;;;;32.73;51.16;101251.74;1691018;84;21422;-77
2021/06/24 10:38:13;;;;;;;23.52;7.83;;;;;;;32.72;51.68;101251.53;1752076;81;22002;-74
2021/06/24 10:41:02;;;;;;;31.00;7.65;;;;;;;32.75;51.88;101244.16;1742111;81;21447;-76
2021/06/24 10:43:47;;;;;;;21.95;7.22;;;;;;;32.77;51.67;101254.69;1744936;81;21312;-77
2021/06/24 10:46:22;;;;;;;25.80;7.25;;;;;;;32.73;51.08;101243.70;1742864;81;21759;-77
2021/06/24 10:48:55;;;;;;;26.87;7.70;;;;;;;32.72;51.72;101247.22;1742561;81;21756;-77
2021/06/24 10:51:34;;;;;;;31.25;8.08;;;;;;;32.76;51.74;101256.72;1739832;81;21186;-79
2021/06/24 10:54:07;;;;;;;27.20;7.92;;;;;;;32.79;51.79;101251.63;1739743;81;21313;-77
2021/06/24 10:56:45;;;;;;;24.50;8.18;;;;;;;32.79;51.55;101250.19;1740836;81;21300;-76
2021/06/24 10:59:29;;;;;;;27.17;8.88;;;;;;;32.78;51.90;101244.22;1727760;80;21854;-72
2021/06/24 11:02:10;;;;;;;30.45;8.55;;;;;;;32.81;51.99;101244.85;1713085;81;21191;-71
2021/06/24 11:04:44;;;;;;;31.97;7.78;;;;;;;32.81;51.35;101236.22;1710846;83;21404;-71
2021/06/24 11:07:26;;;;;;;31.80;8.20;;;;;;;32.78;51.48;101233.30;1708959;83;21906;-75
2021/06/24 11:10:19;;;;;;;26.70;7.73;;;;;;;32.78;51.88;101237.63;1690630;83;21277;-72
2021/06/24 11:12:59;;;;;;;44.18;8.48;;;;;;;32.81;52.09;101240.53;1709027;83;21375;-77
2021/06/24 11:15:54;;;;;;;35.20;8.73;;;;;;;32.82;51.80;101231.30;1709513;82;21230;-74
2021/06/24 11:18:40;;;;;;;37.65;9.83;;;;;;;32.82;51.54;101228.42;1710752;83;21305;-75
2021/06/24 11:21:32;;;;;;;28.62;9.10;;;;;;;32.81;51.16;101236.22;1705346;83;21277;-75
2021/06/24 11:24:16;;;;;;;30.72;8.80;;;;;;;32.78;50.97;101235.59;1706034;83;21720;-74
2021/06/24 11:26:52;;;;;;;28.40;8.53;;;;;;;32.71;51.14;101226.82;1708250;83;21257;-73
2021/06/24 11:32:19;;;;;;;32.63;8.38;;;;;;;32.65;52.51;101225.53;1706631;83;21882;-71
2021/06/24 11:35:14;;;;;;;27.80;8.20;;;;;;;32.64;51.65;101225.32;1708928;83;21198;-71
2021/06/24 11:37:37;;;;;;;30.75;9.38;;;;;;;32.63;51.39;101219.36;1661902;85;21206;-72
2021/06/24 11:40:13;;;;;;;37.20;8.58;;;;;;;32.60;52.05;101218.73;1642221;86;21378;-70
2021/06/24 11:42:47;;;;;;;31.82;9.38;;;;;;;32.59;52.27;101219.95;1664355;85;21289;-70
2021/06/24 11:45:23;;;;;;;31.82;8.60;;;;;;;32.65;52.97;101224.09;1633153;86;21239;-72
2021/06/24 11:47:57;;;;;;;21.12;7.22;;;;;;;32.69;52.22;101217.77;1654284;85;21263;-74
2021/06/24 12:04:40;;;;;;;35.78;8.03;;;;;;;32.89;52.21;101211.20;1663984;85;21246;-72
2021/06/24 12:07:15;;;;;;;31.42;9.03;;;;;;;32.91;52.53;101208.73;1657611;86;21262;-73
2021/06/24 12:09:52;;;;;;;31.15;8.70;;;;;;;32.91;52.48;101203.82;1658776;86;21198;-74
2021/06/24 12:12:27;;;;;;;27.07;9.03;;;;;;;32.91;52.65;101206.70;1658953;86;21341;-74
2021/06/24 12:15:04;;;;;;;33.28;7.85;;;;;;;32.89;52.44;101209.76;1658648;84;21242;-76